KBLV/BLV METAR and TAF weather

Enter ICAO airport designator
Station Type Date Time Source
KBLV METAR 2019/02/21 11:56 UTC NOAA

KBLV 211156Z AUTO 00000KT 8SM CLR M03/M04 A3015 RMK AO2 SLP217 T10281039 10024 21038 53017 $


Station Type Date Time Source
KBLV Decoded METAR 2019/02/21 11:56 UTC NOAA

Belleville, Scott AFB/MidAmerica Airport, IL, United States (KBLV) 38-33N 089-51W
Feb 21, 2019 - 06:56 AM EST / 2019.02.21 1156 UTC
Wind: Calm:0
Visibility: 8 mile(s):0
Sky conditions: clear
Temperature: 27.0 F (-2.8 C)
Dew Point: 25.0 F (-3.9 C)
Relative Humidity: 92%
Pressure (altimeter): 30.15 in. Hg (1020 hPa)
Pressure tendency: 0.05 inches (1.7 hPa) higher than three hours ago
ob: KBLV 211156Z AUTO 00000KT 8SM CLR M03/M04 A3015 RMK AO2 SLP217 T10281039 10024 21038 53017
cycle: 12

Station Type Date Time Source
KBLV TAF 2019/02/21 08:09 UTC NOAA

TAF TAF KBLV 210800Z 2108/2214 VRB06KT 9999 SCT150 QNH3009INS
BECMG 2208/2209 VRB06KT 4800 BR FEW230 510653 QNH3025INS
BECMG 2211/2212 VRB06KT 9999 NSW FEW045 QNH3030INS TX08/2120Z TNM01/2109Z


Example: see airport list